createdAt,value
2022-09-09T00:00:57.069Z,24.37
2022-09-09T00:03:28.745Z,24.50
2022-09-09T00:07:13.694Z,24.55
2022-09-09T00:09:51.360Z,24.49
2022-09-09T00:12:27.719Z,24.48
2022-09-09T00:15:07.125Z,24.37
2022-09-09T00:17:44.527Z,24.35
2022-09-09T00:20:46.668Z,23.97
2022-09-09T00:23:41.082Z,24.23
2022-09-09T00:27:02.851Z,23.96
2022-09-09T00:29:55.835Z,24.20
2022-09-09T00:32:38.168Z,24.71
2022-09-09T00:35:30.906Z,25.11
2022-09-09T00:38:39.156Z,25.14
2022-09-09T00:41:19.965Z,25.13
2022-09-09T00:44:15.147Z,25.27
2022-09-09T00:47:32.373Z,24.91
2022-09-09T00:50:07.836Z,24.88
2022-09-09T00:53:26.973Z,25.00
2022-09-09T00:56:19.977Z,24.55
2022-09-09T01:00:04.204Z,24.41
2022-09-09T01:02:53.922Z,24.34
2022-09-09T01:09:41.626Z,24.23
2022-09-09T01:12:33.014Z,24.63
2022-09-09T01:15:19.034Z,24.45
2022-09-09T01:18:11.211Z,24.44
2022-09-09T01:25:20.729Z,24.71
2022-09-09T01:28:25.304Z,22.24
2022-09-09T01:31:02.448Z,22.69
2022-09-09T01:33:36.272Z,22.91
2022-09-09T01:36:14.104Z,22.80
2022-09-09T01:38:48.501Z,22.68
2022-09-09T01:41:17.043Z,22.59
2022-09-09T01:44:30.977Z,22.45
2022-09-09T01:47:08.933Z,22.41
2022-09-09T01:49:49.087Z,22.62
2022-09-09T01:52:52.635Z,22.72
2022-09-09T01:55:40.833Z,22.57
2022-09-09T01:58:33.150Z,22.25
2022-09-09T02:01:16.880Z,22.62
2022-09-09T02:04:19.477Z,22.53
2022-09-09T02:07:38.815Z,22.63
2022-09-09T02:10:21.062Z,22.42
2022-09-09T02:13:24.152Z,22.27
2022-09-09T02:16:05.251Z,22.22
2022-09-09T02:19:47.658Z,22.59
2022-09-09T02:22:57.169Z,22.63
2022-09-09T02:25:30.542Z,22.83
2022-09-09T02:28:59.076Z,22.60
2022-09-09T02:31:31.160Z,22.52
2022-09-09T02:34:06.702Z,22.24
2022-09-09T02:36:39.156Z,22.30
2022-09-09T02:39:10.503Z,22.20
2022-09-09T02:42:52.812Z,22.27
2022-09-09T02:45:30.732Z,22.52
2022-09-09T02:48:16.038Z,22.50
2022-09-09T02:51:01.841Z,22.50
2022-09-09T02:53:47.838Z,22.24
2022-09-09T02:56:19.595Z,22.38
2022-09-09T02:58:53.019Z,22.72
2022-09-09T03:01:21.843Z,22.50
2022-09-09T03:03:49.627Z,22.15
2022-09-09T03:06:26.775Z,21.86
2022-09-09T03:09:03.915Z,22.15
2022-09-09T03:11:31.814Z,22.36
2022-09-09T03:13:59.502Z,22.48
2022-09-09T03:16:30.097Z,22.49
2022-09-09T03:19:04.089Z,22.32
2022-09-09T03:21:32.926Z,22.17
2022-09-09T03:28:34.462Z,22.40
2022-09-09T03:31:09.437Z,22.15
2022-09-09T03:33:46.435Z,22.31
2022-09-09T03:36:27.393Z,22.45
2022-09-09T03:38:57.842Z,22.25
2022-09-09T03:41:28.336Z,22.45
2022-09-09T03:44:02.219Z,22.44
2022-09-09T03:46:37.019Z,22.77
2022-09-09T03:49:16.169Z,22.78
2022-09-09T03:52:41.451Z,23.02
2022-09-09T03:55:18.830Z,23.08
2022-09-09T03:57:51.568Z,23.14
2022-09-09T04:03:39.964Z,22.96
2022-09-09T04:06:18.231Z,22.89
2022-09-09T04:08:49.969Z,22.94
2022-09-09T04:11:22.169Z,22.96
2022-09-09T04:15:04.578Z,22.78
2022-09-09T04:17:34.014Z,23.04
2022-09-09T04:23:50.956Z,23.09
2022-09-09T04:26:21.766Z,23.21
2022-09-09T04:28:51.798Z,23.04
2022-09-09T04:31:28.205Z,22.84
2022-09-09T04:35:21.361Z,22.95
2022-09-09T04:38:13.986Z,23.21
2022-09-09T04:40:50.469Z,22.70
2022-09-09T04:43:27.807Z,22.78
2022-09-09T04:45:57.089Z,22.78
2022-09-09T04:49:44.740Z,22.75
2022-09-09T04:52:12.600Z,22.80
2022-09-09T04:54:40.253Z,22.78
2022-09-09T04:57:37.677Z,22.83
2022-09-09T05:00:07.128Z,22.81
2022-09-09T05:03:44.118Z,23.20
2022-09-09T05:06:41.131Z,23.05
2022-09-09T05:09:10.985Z,22.82
2022-09-09T05:11:39.322Z,23.17
2022-09-09T05:14:51.458Z,23.34
2022-09-09T05:17:30.033Z,23.20
2022-09-09T05:20:09.070Z,23.31
2022-09-09T05:22:56.389Z,23.24
2022-09-09T05:25:42.134Z,23.54
2022-09-09T06:23:42.388Z,25.10
2022-09-09T06:26:44.025Z,24.77
2022-09-09T06:29:23.164Z,25.22
2022-09-09T06:32:05.161Z,24.98
2022-09-09T06:35:25.746Z,25.44
2022-09-09T06:38:37.141Z,25.47
2022-09-09T06:41:10.946Z,25.93
2022-09-09T06:43:42.106Z,25.93
2022-09-09T06:46:15.636Z,26.11
2022-09-09T06:48:46.801Z,26.15
2022-09-09T06:51:56.067Z,26.28
2022-09-09T06:54:27.303Z,27.01
2022-09-09T06:57:59.152Z,27.40
2022-09-09T07:16:28.637Z,30.86
2022-09-09T07:19:01.653Z,30.77
2022-09-09T07:21:33.146Z,33.43
2022-09-09T07:24:00.983Z,32.41
2022-09-09T07:26:31.377Z,32.46
2022-09-09T07:29:01.021Z,32.08
2022-09-09T07:31:32.622Z,31.91
2022-09-09T07:34:01.752Z,31.49
2022-09-09T07:36:33.412Z,34.01
2022-09-09T07:39:05.511Z,33.57
2022-09-09T07:41:37.250Z,34.60
2022-09-09T07:44:07.737Z,34.09
2022-09-09T07:46:40.395Z,34.42
2022-09-09T07:49:10.768Z,34.22
2022-09-09T07:51:41.908Z,33.13
2022-09-09T07:54:13.399Z,33.83
2022-09-09T07:56:43.715Z,33.94
2022-09-09T07:59:13.143Z,34.42
2022-09-09T08:01:46.281Z,33.73
2022-09-09T08:04:19.162Z,35.08
2022-09-09T08:06:53.268Z,36.61
2022-09-09T08:09:25.370Z,35.66
2022-09-09T08:11:53.849Z,35.50
2022-09-09T08:14:21.697Z,33.33
2022-09-09T08:16:55.019Z,35.00
2022-09-09T08:19:24.622Z,35.75
2022-09-09T08:21:53.261Z,36.89
2022-09-09T08:24:24.221Z,34.32
2022-09-09T08:26:52.938Z,34.10
2022-09-09T08:29:24.444Z,33.55
2022-09-09T08:31:58.224Z,33.18
2022-09-09T08:34:31.500Z,30.85
2022-09-09T08:37:01.827Z,31.66
2022-09-09T08:39:35.237Z,33.73
2022-09-09T08:42:14.961Z,34.56
2022-09-09T08:45:06.447Z,34.16
2022-09-09T08:48:03.285Z,33.73
2022-09-09T08:50:36.499Z,33.31
2022-09-09T08:53:31.267Z,36.06
2022-09-09T08:56:02.785Z,34.17
2022-09-09T08:58:50.064Z,34.73
2022-09-09T09:02:01.230Z,33.27
2022-09-09T09:04:46.366Z,33.82
2022-09-09T09:07:43.542Z,32.78
2022-09-09T09:10:39.988Z,35.54
2022-09-09T09:13:05.139Z,32.45
2022-09-09T09:15:39.495Z,35.98
2022-09-09T09:18:13.953Z,34.63
2022-09-09T09:21:14.292Z,34.38
2022-09-09T09:24:21.018Z,31.55
2022-09-09T09:26:53.975Z,29.47
2022-09-09T09:29:22.786Z,31.31
2022-09-09T09:31:58.198Z,32.51
2022-09-09T09:34:27.918Z,35.75
2022-09-09T09:36:58.747Z,37.37
2022-09-09T09:42:27.456Z,36.24
2022-09-09T09:44:57.496Z,34.35
2022-09-09T09:47:25.334Z,35.38
2022-09-09T09:50:21.917Z,33.27
2022-09-09T09:53:03.192Z,33.38
2022-09-09T09:55:35.909Z,34.61
2022-09-09T09:58:08.275Z,34.70
2022-09-09T10:00:50.177Z,34.14
2022-09-09T10:03:30.634Z,31.46
2022-09-09T10:06:00.196Z,28.05
2022-09-09T10:08:28.768Z,25.27
2022-09-09T10:11:15.693Z,23.66
2022-09-09T10:13:56.748Z,22.68
2022-09-09T10:16:45.954Z,23.07
2022-09-09T10:19:29.809Z,22.58
2022-09-09T10:22:25.500Z,23.38
2022-09-09T10:25:41.826Z,23.17
2022-09-09T10:28:59.267Z,23.43
2022-09-09T10:31:54.675Z,23.55
2022-09-09T10:35:12.957Z,23.50
2022-09-09T10:37:59.463Z,23.91
2022-09-09T10:40:34.623Z,23.68
2022-09-09T10:43:14.165Z,23.58
2022-09-09T10:46:03.680Z,23.57
2022-09-09T10:49:00.169Z,23.52
2022-09-09T10:51:43.962Z,23.40
2022-09-09T10:54:26.984Z,23.11
2022-09-09T10:57:04.914Z,23.08
2022-09-09T10:59:41.963Z,23.48
2022-09-09T11:02:20.346Z,23.33
2022-09-09T11:05:20.961Z,24.00
2022-09-09T11:07:59.460Z,24.11
2022-09-09T11:10:46.180Z,24.34
2022-09-09T11:13:27.840Z,24.24
2022-09-09T11:16:03.884Z,24.36
2022-09-09T11:18:36.242Z,24.16
2022-09-09T11:21:08.599Z,24.64
2022-09-09T11:23:43.354Z,24.56
2022-09-09T11:26:19.938Z,24.93
2022-09-09T11:29:18.837Z,25.68
2022-09-09T11:31:55.160Z,25.74
2022-09-09T11:37:22.235Z,26.67
2022-09-09T11:55:48.929Z,27.42
2022-09-09T12:02:27.759Z,27.24
2022-09-09T12:08:11.541Z,27.93
